sensor_id;sensor_type;location;lat;lon;timestamp;pressure;altitude;pressure_sealevel;temperature;humidity
60019;BME280;45870;42.528;26.740;2022-12-07T00:00:30;99877.81;;;17.85;43.47
60019;BME280;45870;42.528;26.740;2022-12-07T00:02:56;99807.22;;;17.28;43.97
60019;BME280;45870;42.528;26.740;2022-12-07T00:05:22;99867.59;;;18.21;42.69
60019;BME280;45870;42.528;26.740;2022-12-07T00:07:47;99843.00;;;18.21;42.36
60019;BME280;45870;42.528;26.740;2022-12-07T00:10:14;99889.34;;;18.46;42.44
60019;BME280;45870;42.528;26.740;2022-12-07T00:12:40;99844.06;;;17.20;44.92
60019;BME280;45870;42.528;26.740;2022-12-07T00:15:06;99823.16;;;15.56;49.67
60019;BME280;45870;42.528;26.740;2022-12-07T00:17:31;99740.00;;;15.28;49.22
60019;BME280;45870;42.528;26.740;2022-12-07T00:19:58;99889.09;;;16.20;49.19
60019;BME280;45870;42.528;26.740;2022-12-07T00:22:24;99884.97;;;17.56;45.49
60019;BME280;45870;42.528;26.740;2022-12-07T00:24:50;99885.38;;;18.18;44.03
60019;BME280;45870;42.528;26.740;2022-12-07T00:27:15;99886.63;;;17.36;45.31
60019;BME280;45870;42.528;26.740;2022-12-07T00:29:42;99888.59;;;16.28;48.71
60019;BME280;45870;42.528;26.740;2022-12-07T00:32:07;99817.63;;;16.90;46.51
60019;BME280;45870;42.528;26.740;2022-12-07T00:34:33;99890.94;;;16.77;48.24
60019;BME280;45870;42.528;26.740;2022-12-07T00:36:59;99886.06;;;17.65;45.77
60019;BME280;45870;42.528;26.740;2022-12-07T00:39:24;99892.09;;;17.41;47.59
60019;BME280;45870;42.528;26.740;2022-12-07T00:41:50;99886.03;;;17.70;46.28
60019;BME280;45870;42.528;26.740;2022-12-07T00:44:16;99896.34;;;16.62;48.79
60019;BME280;45870;42.528;26.740;2022-12-07T00:46:41;99721.22;;;15.79;48.18
60019;BME280;45870;42.528;26.740;2022-12-07T00:49:07;99884.16;;;17.25;47.71
60019;BME280;45870;42.528;26.740;2022-12-07T00:51:33;99890.00;;;16.51;49.19
60019;BME280;45870;42.528;26.740;2022-12-07T00:53:59;99892.69;;;15.79;51.73
60019;BME280;45870;42.528;26.740;2022-12-07T00:56:26;99827.63;;;15.77;50.73
60019;BME280;45870;42.528;26.740;2022-12-07T00:59:02;99895.06;;;15.70;51.44
60019;BME280;45870;42.528;26.740;2022-12-07T01:01:33;99848.53;;;15.30;51.38
60019;BME280;45870;42.528;26.740;2022-12-07T01:04:00;99881.09;;;15.98;50.52
60019;BME280;45870;42.528;26.740;2022-12-07T01:06:30;99880.66;;;16.27;49.81
60019;BME280;45870;42.528;26.740;2022-12-07T01:08:55;99853.59;;;16.82;47.55
60019;BME280;45870;42.528;26.740;2022-12-07T01:11:24;99882.59;;;16.36;49.06
60019;BME280;45870;42.528;26.740;2022-12-07T01:13:51;99827.59;;;14.40;53.95
60019;BME280;45870;42.528;26.740;2022-12-07T01:16:18;99873.41;;;15.12;53.10
60019;BME280;45870;42.528;26.740;2022-12-07T01:18:46;99870.69;;;16.53;49.02
60019;BME280;45870;42.528;26.740;2022-12-07T01:21:15;99854.38;;;17.79;45.99
60019;BME280;45870;42.528;26.740;2022-12-07T01:23:41;99854.38;;;17.54;46.23
60019;BME280;45870;42.528;26.740;2022-12-07T01:26:11;99847.22;;;17.93;44.89
60019;BME280;45870;42.528;26.740;2022-12-07T01:28:37;99830.84;;;17.93;44.53
60019;BME280;45870;42.528;26.740;2022-12-07T01:31:06;99799.50;;;17.70;44.54
60019;BME280;45870;42.528;26.740;2022-12-07T01:33:34;99838.31;;;16.86;47.86
60019;BME280;45870;42.528;26.740;2022-12-07T01:36:02;99825.75;;;17.36;46.64
60019;BME280;45870;42.528;26.740;2022-12-07T01:38:29;99839.59;;;16.48;48.44
60019;BME280;45870;42.528;26.740;2022-12-07T01:40:56;99769.75;;;16.02;48.75
60019;BME280;45870;42.528;26.740;2022-12-07T01:43:24;99849.00;;;15.59;50.64
60019;BME280;45870;42.528;26.740;2022-12-07T01:45:51;99811.09;;;14.46;53.48
60019;BME280;45870;42.528;26.740;2022-12-07T01:48:20;99845.03;;;15.71;50.88
60019;BME280;45870;42.528;26.740;2022-12-07T01:50:48;99794.00;;;16.04;48.72
60019;BME280;45870;42.528;26.740;2022-12-07T01:53:16;99851.84;;;16.36;48.72
60019;BME280;45870;42.528;26.740;2022-12-07T01:55:45;99836.13;;;16.68;48.33
60019;BME280;45870;42.528;26.740;2022-12-07T01:58:12;99819.34;;;16.19;48.64
60019;BME280;45870;42.528;26.740;2022-12-07T02:00:38;99839.56;;;15.29;52.02
60019;BME280;45870;42.528;26.740;2022-12-07T02:03:13;99844.72;;;15.73;50.98
60019;BME280;45870;42.528;26.740;2022-12-07T02:05:42;99829.47;;;15.67;50.41
60019;BME280;45870;42.528;26.740;2022-12-07T02:08:09;99828.91;;;16.27;49.30
60019;BME280;45870;42.528;26.740;2022-12-07T02:10:36;99800.13;;;15.32;51.14
60019;BME280;45870;42.528;26.740;2022-12-07T02:13:06;99827.22;;;16.06;50.36
60019;BME280;45870;42.528;26.740;2022-12-07T02:21:59;99820.50;;;15.66;50.94
60019;BME280;45870;42.528;26.740;2022-12-07T02:30:05;99824.84;;;16.34;48.62
60019;BME280;45870;42.528;26.740;2022-12-07T02:35:25;99674.41;;;15.72;48.52
60019;BME280;45870;42.528;26.740;2022-12-07T02:38:02;99818.66;;;17.55;45.86
60019;BME280;45870;42.528;26.740;2022-12-07T02:40:43;99806.09;;;17.49;45.80
60019;BME280;45870;42.528;26.740;2022-12-07T02:43:17;99639.63;;;16.34;45.91
60019;BME280;45870;42.528;26.740;2022-12-07T02:45:45;99726.25;;;17.08;45.54
60019;BME280;45870;42.528;26.740;2022-12-07T02:48:15;99813.47;;;17.48;45.92
60019;BME280;45870;42.528;26.740;2022-12-07T02:50:49;99772.88;;;17.27;45.80
60019;BME280;45870;42.528;26.740;2022-12-07T02:53:36;99818.38;;;17.57;45.72
60019;BME280;45870;42.528;26.740;2022-12-07T03:01:36;99812.09;;;17.56;45.55
60019;BME280;45870;42.528;26.740;2022-12-07T03:04:23;99804.25;;;16.84;47.60
60019;BME280;45870;42.528;26.740;2022-12-07T03:07:00;99799.88;;;16.73;48.49
60019;BME280;45870;42.528;26.740;2022-12-07T03:09:38;99806.94;;;17.39;46.83
60019;BME280;45870;42.528;26.740;2022-12-07T03:12:10;99795.44;;;17.73;45.37
60019;BME280;45870;42.528;26.740;2022-12-07T03:14:55;99659.78;;;16.13;47.28
60019;BME280;45870;42.528;26.740;2022-12-07T03:17:28;99803.09;;;16.44;48.97
60019;BME280;45870;42.528;26.740;2022-12-07T03:20:00;99815.38;;;16.52;49.41
60019;BME280;45870;42.528;26.740;2022-12-07T03:22:30;99774.25;;;16.79;47.80
60019;BME280;45870;42.528;26.740;2022-12-07T03:25:04;99808.31;;;17.22;46.66
60019;BME280;45870;42.528;26.740;2022-12-07T03:27:35;99802.81;;;17.42;45.79
60019;BME280;45870;42.528;26.740;2022-12-07T03:30:10;99803.66;;;17.42;45.68
60019;BME280;45870;42.528;26.740;2022-12-07T03:32:43;99797.41;;;17.32;46.18
60019;BME280;45870;42.528;26.740;2022-12-07T03:35:37;99794.97;;;17.30;45.53
60019;BME280;45870;42.528;26.740;2022-12-07T03:41:01;99787.34;;;16.97;45.93
60019;BME280;45870;42.528;26.740;2022-12-07T03:43:30;99710.47;;;16.75;45.41
60019;BME280;45870;42.528;26.740;2022-12-07T03:46:09;99776.97;;;16.94;45.68
60019;BME280;45870;42.528;26.740;2022-12-07T03:48:46;99785.16;;;17.04;45.81
60019;BME280;45870;42.528;26.740;2022-12-07T03:51:45;99782.13;;;16.55;46.70
60019;BME280;45870;42.528;26.740;2022-12-07T03:54:26;99782.19;;;16.95;46.36
60019;BME280;45870;42.528;26.740;2022-12-07T03:56:55;99793.59;;;17.18;45.60
60019;BME280;45870;42.528;26.740;2022-12-07T03:59:23;99791.97;;;17.12;46.15
60019;BME280;45870;42.528;26.740;2022-12-07T04:01:59;99784.31;;;17.14;45.78
60019;BME280;45870;42.528;26.740;2022-12-07T04:04:27;99782.41;;;17.19;45.76
60019;BME280;45870;42.528;26.740;2022-12-07T04:06:53;99764.44;;;17.08;45.40
60019;BME280;45870;42.528;26.740;2022-12-07T04:09:19;99782.16;;;17.16;45.95
60019;BME280;45870;42.528;26.740;2022-12-07T04:11:45;99779.69;;;17.14;45.96
60019;BME280;45870;42.528;26.740;2022-12-07T04:14:10;99772.06;;;17.01;46.69
60019;BME280;45870;42.528;26.740;2022-12-07T04:16:51;99746.72;;;16.95;45.78
60019;BME280;45870;42.528;26.740;2022-12-07T04:19:20;99787.03;;;17.34;45.29
60019;BME280;45870;42.528;26.740;2022-12-07T04:21:46;99768.47;;;17.41;45.47
60019;BME280;45870;42.528;26.740;2022-12-07T04:24:14;99749.94;;;17.38;45.27
60019;BME280;45870;42.528;26.740;2022-12-07T04:26:41;99722.72;;;17.03;45.47
60019;BME280;45870;42.528;26.740;2022-12-07T04:29:08;99739.03;;;17.18;45.64
60019;BME280;45870;42.528;26.740;2022-12-07T04:31:35;99766.03;;;17.29;46.00
60019;BME280;45870;42.528;26.740;2022-12-07T04:34:01;99771.44;;;17.49;45.72
60019;BME280;45870;42.528;26.740;2022-12-07T04:36:26;99773.44;;;16.68;47.36
60019;BME280;45870;42.528;26.740;2022-12-07T04:38:55;99746.75;;;16.80;47.15
60019;BME280;45870;42.528;26.740;2022-12-07T04:41:22;99773.13;;;17.10;46.33
60019;BME280;45870;42.528;26.740;2022-12-07T04:43:57;99774.00;;;16.95;46.78
60019;BME280;45870;42.528;26.740;2022-12-07T04:46:24;99771.47;;;16.38;48.30
60019;BME280;45870;42.528;26.740;2022-12-07T04:48:51;99731.41;;;16.34;47.74
60019;BME280;45870;42.528;26.740;2022-12-07T04:51:24;99774.75;;;16.45;47.92
60019;BME280;45870;42.528;26.740;2022-12-07T04:53:50;99729.78;;;16.33;47.21
60019;BME280;45870;42.528;26.740;2022-12-07T04:56:16;99739.94;;;15.60;49.38
60019;BME280;45870;42.528;26.740;2022-12-07T04:58:44;99771.81;;;15.23;51.30
60019;BME280;45870;42.528;26.740;2022-12-07T05:01:10;99773.91;;;16.30;48.46
60019;BME280;45870;42.528;26.740;2022-12-07T05:03:37;99775.84;;;16.55;47.37
60019;BME280;45870;42.528;26.740;2022-12-07T05:06:04;99761.41;;;16.54;47.19
60019;BME280;45870;42.528;26.740;2022-12-07T05:08:30;99781.88;;;16.62;47.42
60019;BME280;45870;42.528;26.740;2022-12-07T05:10:56;99756.81;;;16.80;46.49
60019;BME280;45870;42.528;26.740;2022-12-07T05:13:22;99736.91;;;16.69;46.36
60019;BME280;45870;42.528;26.740;2022-12-07T05:15:48;99772.88;;;17.07;46.18
60019;BME280;45870;42.528;26.740;2022-12-07T05:18:14;99762.25;;;16.90;45.93
60019;BME280;45870;42.528;26.740;2022-12-07T05:20:40;99779.97;;;16.72;47.05
60019;BME280;45870;42.528;26.740;2022-12-07T05:23:06;99781.84;;;16.52;47.75
60019;BME280;45870;42.528;26.740;2022-12-07T05:25:32;99777.53;;;16.81;47.74
60019;BME280;45870;42.528;26.740;2022-12-07T05:27:57;99774.28;;;16.99;47.16
60019;BME280;45870;42.528;26.740;2022-12-07T05:30:24;99780.22;;;16.61;47.85
60019;BME280;45870;42.528;26.740;2022-12-07T05:32:53;99557.66;;;15.95;45.82
60019;BME280;45870;42.528;26.740;2022-12-07T05:35:19;99767.34;;;17.42;45.74
60019;BME280;45870;42.528;26.740;2022-12-07T05:37:44;99755.63;;;17.46;45.13
60019;BME280;45870;42.528;26.740;2022-12-07T05:40:12;99760.25;;;17.46;45.33
60019;BME280;45870;42.528;26.740;2022-12-07T05:42:38;99782.13;;;17.26;46.14
60019;BME280;45870;42.528;26.740;2022-12-07T05:45:05;99709.91;;;16.98;45.79
60019;BME280;45870;42.528;26.740;2022-12-07T05:47:32;99771.97;;;17.62;45.53
60019;BME280;45870;42.528;26.740;2022-12-07T05:49:57;99784.00;;;17.35;46.31
60019;BME280;45870;42.528;26.740;2022-12-07T05:52:24;99785.66;;;17.41;45.98
60019;BME280;45870;42.528;26.740;2022-12-07T05:54:49;99783.16;;;17.50;46.04
60019;BME280;45870;42.528;26.740;2022-12-07T05:57:16;99785.06;;;17.55;45.66
60019;BME280;45870;42.528;26.740;2022-12-07T05:59:41;99761.13;;;17.26;46.32
60019;BME280;45870;42.528;26.740;2022-12-07T06:02:09;99791.13;;;17.36;46.83
60019;BME280;45870;42.528;26.740;2022-12-07T06:04:43;99793.47;;;17.78;45.49
60019;BME280;45870;42.528;26.740;2022-12-07T06:07:17;99788.38;;;17.62;46.79
60019;BME280;45870;42.528;26.740;2022-12-07T06:09:43;99749.81;;;17.73;45.58
60019;BME280;45870;42.528;26.740;2022-12-07T06:12:11;99795.75;;;18.25;44.84
60019;BME280;45870;42.528;26.740;2022-12-07T06:14:56;99777.63;;;18.39;44.13
60019;BME280;45870;42.528;26.740;2022-12-07T06:17:22;99787.94;;;18.53;44.45
60019;BME280;45870;42.528;26.740;2022-12-07T06:19:48;99797.53;;;17.91;45.84
60019;BME280;45870;42.528;26.740;2022-12-07T06:22:14;99756.59;;;17.86;45.24
60019;BME280;45870;42.528;26.740;2022-12-07T06:24:41;99800.50;;;18.00;45.62
60019;BME280;45870;42.528;26.740;2022-12-07T06:27:08;99807.41;;;17.82;45.74
60019;BME280;45870;42.528;26.740;2022-12-07T06:29:34;99800.06;;;17.67;45.64
60019;BME280;45870;42.528;26.740;2022-12-07T06:32:00;99777.25;;;17.08;47.94
60019;BME280;45870;42.528;26.740;2022-12-07T06:34:26;99772.81;;;17.57;46.58
60019;BME280;45870;42.528;26.740;2022-12-07T06:36:53;99811.72;;;17.93;46.12
60019;BME280;45870;42.528;26.740;2022-12-07T06:39:27;99805.91;;;18.15;45.76
60019;BME280;45870;42.528;26.740;2022-12-07T06:41:54;99812.41;;;16.89;48.40
60019;BME280;45870;42.528;26.740;2022-12-07T06:44:20;99804.34;;;18.53;44.90
60019;BME280;45870;42.528;26.740;2022-12-07T06:46:47;99737.44;;;16.71;47.86
60019;BME280;45870;42.528;26.740;2022-12-07T06:49:14;99808.59;;;17.25;48.07
60019;BME280;45870;42.528;26.740;2022-12-07T06:51:40;99780.53;;;16.79;48.81
60019;BME280;45870;42.528;26.740;2022-12-07T06:54:10;99690.56;;;16.49;48.86
60019;BME280;45870;42.528;26.740;2022-12-07T06:56:36;99803.72;;;16.87;49.57
60019;BME280;45870;42.528;26.740;2022-12-07T06:59:02;99757.88;;;17.19;47.63
60019;BME280;45870;42.528;26.740;2022-12-07T07:01:28;99806.97;;;16.94;48.97
60019;BME280;45870;42.528;26.740;2022-12-07T07:03:54;99811.28;;;17.61;48.00
60019;BME280;45870;42.528;26.740;2022-12-07T07:06:20;99742.06;;;16.50;49.06
60019;BME280;45870;42.528;26.740;2022-12-07T07:08:46;99800.88;;;17.68;47.07
60019;BME280;45870;42.528;26.740;2022-12-07T07:11:12;99795.78;;;17.31;47.51
60019;BME280;45870;42.528;26.740;2022-12-07T07:13:38;99802.31;;;17.45;47.59
60019;BME280;45870;42.528;26.740;2022-12-07T07:16:05;99797.97;;;16.68;49.64
60019;BME280;45870;42.528;26.740;2022-12-07T07:18:31;99813.19;;;15.35;53.40
60019;BME280;45870;42.528;26.740;2022-12-07T07:20:57;99796.81;;;15.67;52.73
60019;BME280;45870;42.528;26.740;2022-12-07T07:23:23;99808.47;;;16.14;51.53
60019;BME280;45870;42.528;26.740;2022-12-07T07:25:49;99805.66;;;15.94;52.83
60019;BME280;45870;42.528;26.740;2022-12-07T07:28:15;99771.25;;;16.75;48.90
60019;BME280;45870;42.528;26.740;2022-12-07T07:30:41;99803.66;;;17.47;48.29
60019;BME280;45870;42.528;26.740;2022-12-07T07:33:07;99799.84;;;17.33;48.55
60019;BME280;45870;42.528;26.740;2022-12-07T07:35:33;99797.91;;;17.54;47.83
60019;BME280;45870;42.528;26.740;2022-12-07T07:38:00;99766.81;;;17.45;47.52
60019;BME280;45870;42.528;26.740;2022-12-07T07:40:26;99814.00;;;17.51;48.08
60019;BME280;45870;42.528;26.740;2022-12-07T07:42:53;99800.03;;;17.82;46.65
60019;BME280;45870;42.528;26.740;2022-12-07T07:45:21;99791.03;;;18.36;45.12
60019;BME280;45870;42.528;26.740;2022-12-07T07:47:48;99813.75;;;17.32;47.93
60019;BME280;45870;42.528;26.740;2022-12-07T07:50:14;99816.91;;;16.23;51.01
60019;BME280;45870;42.528;26.740;2022-12-07T07:52:40;99806.69;;;17.26;48.58
60019;BME280;45870;42.528;26.740;2022-12-07T07:55:06;99794.06;;;16.24;50.57
60019;BME280;45870;42.528;26.740;2022-12-07T08:00:13;99807.50;;;16.96;48.93
60019;BME280;45870;42.528;26.740;2022-12-07T08:02:41;99807.78;;;16.89;49.19
60019;BME280;45870;42.528;26.740;2022-12-07T08:05:08;99803.44;;;16.83;48.85
60019;BME280;45870;42.528;26.740;2022-12-07T08:07:34;99767.06;;;16.22;49.94
60019;BME280;45870;42.528;26.740;2022-12-07T08:10:00;99815.97;;;16.89;49.17
60019;BME280;45870;42.528;26.740;2022-12-07T08:12:25;99817.34;;;16.87;49.13
60019;BME280;45870;42.528;26.740;2022-12-07T08:14:51;99817.88;;;15.91;51.39
60019;BME280;45870;42.528;26.740;2022-12-07T08:17:16;99815.97;;;16.84;49.23
60019;BME280;45870;42.528;26.740;2022-12-07T08:19:42;99767.97;;;17.14;48.50
60019;BME280;45870;42.528;26.740;2022-12-07T08:22:08;99816.53;;;15.94;51.87
60019;BME280;45870;42.528;26.740;2022-12-07T08:24:34;99810.03;;;15.48;53.76
60019;BME280;45870;42.528;26.740;2022-12-07T08:27:00;99768.78;;;15.61;52.14
60019;BME280;45870;42.528;26.740;2022-12-07T08:29:26;99811.78;;;15.64;53.43
60019;BME280;45870;42.528;26.740;2022-12-07T08:31:52;99806.97;;;16.84;50.20
60019;BME280;45870;42.528;26.740;2022-12-07T08:34:18;99628.41;;;15.03;51.16
60019;BME280;45870;42.528;26.740;2022-12-07T08:36:44;99814.47;;;16.21;51.89
60019;BME280;45870;42.528;26.740;2022-12-07T08:39:10;99789.53;;;15.72;51.58
60019;BME280;45870;42.528;26.740;2022-12-07T08:41:35;99803.16;;;15.35;54.25
60019;BME280;45870;42.528;26.740;2022-12-07T08:44:02;99811.00;;;16.51;50.91
60019;BME280;45870;42.528;26.740;2022-12-07T08:46:38;99802.59;;;16.93;49.12
60019;BME280;45870;42.528;26.740;2022-12-07T08:49:14;99802.06;;;16.91;49.04
60019;BME280;45870;42.528;26.740;2022-12-07T08:51:42;99800.00;;;17.87;46.86
60019;BME280;45870;42.528;26.740;2022-12-07T08:54:11;99800.06;;;17.72;46.44
60019;BME280;45870;42.528;26.740;2022-12-07T08:56:38;99801.19;;;16.55;49.41
60019;BME280;45870;42.528;26.740;2022-12-07T08:59:05;99767.97;;;17.14;48.40
60019;BME280;45870;42.528;26.740;2022-12-07T09:01:31;99801.78;;;16.82;49.67
60019;BME280;45870;42.528;26.740;2022-12-07T09:03:57;99798.84;;;18.91;44.08
60019;BME280;45870;42.528;26.740;2022-12-07T09:06:22;99782.16;;;17.06;48.06
60019;BME280;45870;42.528;26.740;2022-12-07T09:08:52;99797.91;;;16.38;49.72
60019;BME280;45870;42.528;26.740;2022-12-07T09:11:19;99646.72;;;16.61;47.24
60019;BME280;45870;42.528;26.740;2022-12-07T09:13:45;99783.47;;;18.67;44.89
60019;BME280;45870;42.528;26.740;2022-12-07T09:16:10;99786.38;;;17.82;47.09
60019;BME280;45870;42.528;26.740;2022-12-07T09:18:37;99775.94;;;19.45;42.68
60019;BME280;45870;42.528;26.740;2022-12-07T09:21:04;99774.78;;;18.55;45.00
60019;BME280;45870;42.528;26.740;2022-12-07T09:23:30;99767.63;;;17.51;47.08
60019;BME280;45870;42.528;26.740;2022-12-07T09:26:00;99764.59;;;18.21;45.33
60019;BME280;45870;42.528;26.740;2022-12-07T09:28:26;99703.09;;;17.01;46.82
60019;BME280;45870;42.528;26.740;2022-12-07T09:30:52;99713.16;;;16.19;48.55
60019;BME280;45870;42.528;26.740;2022-12-07T09:33:17;99721.66;;;16.68;48.57
60019;BME280;45870;42.528;26.740;2022-12-07T09:35:49;99749.75;;;18.76;45.11
60019;BME280;45870;42.528;26.740;2022-12-07T09:38:16;99752.31;;;17.60;47.81
60019;BME280;45870;42.528;26.740;2022-12-07T09:40:42;99728.94;;;17.33;46.92
60019;BME280;45870;42.528;26.740;2022-12-07T09:43:18;99744.38;;;17.68;46.67
60019;BME280;45870;42.528;26.740;2022-12-07T09:45:47;99724.78;;;17.56;47.05
60019;BME280;45870;42.528;26.740;2022-12-07T09:48:22;99746.00;;;17.74;46.54
60019;BME280;45870;42.528;26.740;2022-12-07T09:50:51;99743.44;;;18.42;44.76
60019;BME280;45870;42.528;26.740;2022-12-07T09:53:25;99679.69;;;17.69;45.95
60019;BME280;45870;42.528;26.740;2022-12-07T09:55:53;99740.78;;;18.32;44.99
60019;BME280;45870;42.528;26.740;2022-12-07T09:58:27;99717.03;;;17.83;45.41
60019;BME280;45870;42.528;26.740;2022-12-07T10:00:56;99743.06;;;17.45;46.15
60019;BME280;45870;42.528;26.740;2022-12-07T10:03:26;99701.16;;;20.80;39.91
60019;BME280;45870;42.528;26.740;2022-12-07T10:05:52;99726.78;;;19.06;42.59
60019;BME280;45870;42.528;26.740;2022-12-07T10:08:19;99725.47;;;16.72;47.71
60019;BME280;45870;42.528;26.740;2022-12-07T10:10:46;99720.47;;;18.04;44.87
60019;BME280;45870;42.528;26.740;2022-12-07T10:13:19;99727.19;;;17.73;45.86
60019;BME280;45870;42.528;26.740;2022-12-07T10:15:55;99692.91;;;18.34;44.36
60019;BME280;45870;42.528;26.740;2022-12-07T10:23:30;99708.59;;;17.75;45.53
60019;BME280;45870;42.528;26.740;2022-12-07T10:25:55;99705.84;;;16.75;47.25
60019;BME280;45870;42.528;26.740;2022-12-07T10:28:22;99713.84;;;18.15;44.39
60019;BME280;45870;42.528;26.740;2022-12-07T10:33:40;99708.25;;;17.07;46.82
60019;BME280;45870;42.528;26.740;2022-12-07T10:36:26;99632.06;;;17.90;44.04
60019;BME280;45870;42.528;26.740;2022-12-07T10:41:35;99705.06;;;18.86;42.80
60019;BME280;45870;42.528;26.740;2022-12-07T10:44:00;99713.09;;;18.77;42.52
60019;BME280;45870;42.528;26.740;2022-12-07T10:46:37;99706.63;;;17.90;44.36
60019;BME280;45870;42.528;26.740;2022-12-07T10:52:07;99701.69;;;18.99;42.45
60019;BME280;45870;42.528;26.740;2022-12-07T10:54:59;99702.59;;;18.22;44.40
60019;BME280;45870;42.528;26.740;2022-12-07T10:57:41;99701.09;;;17.95;44.67
60019;BME280;45870;42.528;26.740;2022-12-07T11:00:23;99704.66;;;18.74;42.11
60019;BME280;45870;42.528;26.740;2022-12-07T11:03:36;99708.09;;;18.56;42.87
60019;BME280;45870;42.528;26.740;2022-12-07T11:06:30;99694.22;;;18.08;44.29
60019;BME280;45870;42.528;26.740;2022-12-07T11:09:41;99698.09;;;17.97;44.94
60019;BME280;45870;42.528;26.740;2022-12-07T11:18:09;99657.88;;;16.44;47.33
60019;BME280;45870;42.528;26.740;2022-12-07T11:23:21;99684.31;;;18.56;43.55
60019;BME280;45870;42.528;26.740;2022-12-07T11:26:04;99687.63;;;17.65;46.14
60019;BME280;45870;42.528;26.740;2022-12-07T11:28:43;99677.44;;;18.59;44.50
60019;BME280;45870;42.528;26.740;2022-12-07T11:31:30;99649.84;;;19.98;40.27
60019;BME280;45870;42.528;26.740;2022-12-07T11:34:27;99664.41;;;18.12;44.85
60019;BME280;45870;42.528;26.740;2022-12-07T11:36:56;99627.03;;;18.07;44.74
60019;BME280;45870;42.528;26.740;2022-12-07T11:41:56;99627.25;;;17.72;45.20
60019;BME280;45870;42.528;26.740;2022-12-07T11:44:32;99574.41;;;17.96;43.58
60019;BME280;45870;42.528;26.740;2022-12-07T11:47:08;99652.56;;;19.36;41.77
60019;BME280;45870;42.528;26.740;2022-12-07T11:49:47;99648.00;;;20.12;40.20
60019;BME280;45870;42.528;26.740;2022-12-07T11:52:22;99645.41;;;20.02;40.39
60019;BME280;45870;42.528;26.740;2022-12-07T11:54:51;99649.09;;;18.50;43.67
60019;BME280;45870;42.528;26.740;2022-12-07T11:57:26;99641.91;;;20.33;39.56
60019;BME280;45870;42.528;26.740;2022-12-07T12:00:00;99602.41;;;17.14;45.73
60019;BME280;45870;42.528;26.740;2022-12-07T12:02:37;99634.63;;;19.25;42.39
60019;BME280;45870;42.528;26.740;2022-12-07T12:05:15;99636.22;;;20.11;40.85
60019;BME280;45870;42.528;26.740;2022-12-07T12:07:43;99634.88;;;17.80;45.23
60019;BME280;45870;42.528;26.740;2022-12-07T12:10:38;99622.78;;;20.47;40.01
60019;BME280;45870;42.528;26.740;2022-12-07T12:15:47;99622.16;;;19.62;41.68
60019;BME280;45870;42.528;26.740;2022-12-07T12:20:50;99616.53;;;19.29;42.44
60019;BME280;45870;42.528;26.740;2022-12-07T12:23:35;99612.97;;;19.53;41.64
60019;BME280;45870;42.528;26.740;2022-12-07T12:26:05;99620.78;;;18.35;44.88
60019;BME280;45870;42.528;26.740;2022-12-07T12:28:41;99617.69;;;18.47;44.35
60019;BME280;45870;42.528;26.740;2022-12-07T12:31:16;99611.69;;;18.98;44.03
60019;BME280;45870;42.528;26.740;2022-12-07T12:33:57;99524.56;;;18.38;43.38
60019;BME280;45870;42.528;26.740;2022-12-07T12:36:43;99604.94;;;17.60;46.51
60019;BME280;45870;42.528;26.740;2022-12-07T12:39:12;99604.25;;;18.17;44.76
60019;BME280;45870;42.528;26.740;2022-12-07T12:47:01;99599.91;;;18.78;43.28
60019;BME280;45870;42.528;26.740;2022-12-07T12:49:34;99606.16;;;18.21;44.51
60019;BME280;45870;42.528;26.740;2022-12-07T12:57:35;99595.66;;;18.91;43.79
60019;BME280;45870;42.528;26.740;2022-12-07T13:00:23;99603.19;;;18.46;44.52
60019;BME280;45870;42.528;26.740;2022-12-07T13:02:58;99568.75;;;18.98;42.33
60019;BME280;45870;42.528;26.740;2022-12-07T13:05:31;99582.00;;;20.08;40.53
60019;BME280;45870;42.528;26.740;2022-12-07T13:18:35;99589.13;;;18.87;43.22
60019;BME280;45870;42.528;26.740;2022-12-07T13:20:53;99584.03;;;19.47;41.71
60019;BME280;45870;42.528;26.740;2022-12-07T13:23:26;99591.72;;;19.82;41.60
60019;BME280;45870;42.528;26.740;2022-12-07T13:26:16;99600.38;;;18.85;43.30
60019;BME280;45870;42.528;26.740;2022-12-07T13:28:45;99591.63;;;18.83;43.14
60019;BME280;45870;42.528;26.740;2022-12-07T13:31:34;99585.03;;;19.88;41.23
60019;BME280;45870;42.528;26.740;2022-12-07T13:34:04;99557.09;;;19.54;41.23
60019;BME280;45870;42.528;26.740;2022-12-07T13:36:33;99582.56;;;20.56;39.68
60019;BME280;45870;42.528;26.740;2022-12-07T13:39:23;99552.69;;;19.34;41.53
60019;BME280;45870;42.528;26.740;2022-12-07T13:41:57;99575.88;;;18.99;43.16
60019;BME280;45870;42.528;26.740;2022-12-07T13:44:26;99590.22;;;19.10;43.12
60019;BME280;45870;42.528;26.740;2022-12-07T13:49:51;99486.06;;;19.62;40.80
60019;BME280;45870;42.528;26.740;2022-12-07T13:52:25;99582.56;;;19.30;42.60
60019;BME280;45870;42.528;26.740;2022-12-07T13:57:33;99595.16;;;19.31;42.89
60019;BME280;45870;42.528;26.740;2022-12-07T14:00:02;99595.22;;;18.79;43.96
60019;BME280;45870;42.528;26.740;2022-12-07T14:02:31;99605.94;;;18.46;44.70
60019;BME280;45870;42.528;26.740;2022-12-07T14:05:22;99602.63;;;18.78;43.80
60019;BME280;45870;42.528;26.740;2022-12-07T14:11:03;99598.63;;;18.37;44.85
60019;BME280;45870;42.528;26.740;2022-12-07T14:13:35;99604.31;;;18.40;45.04
60019;BME280;45870;42.528;26.740;2022-12-07T14:16:23;99459.44;;;17.64;44.50
60019;BME280;45870;42.528;26.740;2022-12-07T14:18:51;99611.88;;;19.30;42.38
60019;BME280;45870;42.528;26.740;2022-12-07T14:21:20;99607.69;;;18.90;43.18
60019;BME280;45870;42.528;26.740;2022-12-07T14:24:21;99617.97;;;18.74;43.80
60019;BME280;45870;42.528;26.740;2022-12-07T14:26:49;99597.31;;;18.87;43.40
60019;BME280;45870;42.528;26.740;2022-12-07T14:29:31;99609.78;;;18.74;43.45
60019;BME280;45870;42.528;26.740;2022-12-07T14:31:59;99611.13;;;19.01;42.82